createdAt,value
2023-05-05T00:00:16.028Z,6.15
2023-05-05T00:02:43.867Z,4.90
2023-05-05T00:05:11.331Z,5.20
2023-05-05T00:07:38.766Z,4.90
2023-05-05T00:10:06.655Z,6.35
2023-05-05T00:12:34.140Z,5.57
2023-05-05T00:15:01.366Z,3.38
2023-05-05T00:17:28.613Z,6.45
2023-05-05T00:19:55.791Z,5.85
2023-05-05T00:22:22.943Z,5.88
2023-05-05T00:24:50.012Z,4.47
2023-05-05T00:27:17.289Z,6.72
2023-05-05T00:29:44.778Z,4.82
2023-05-05T00:32:11.917Z,6.05
2023-05-05T00:34:39.035Z,4.35
2023-05-05T00:37:06.592Z,4.97
2023-05-05T00:39:33.669Z,5.05
2023-05-05T00:42:00.843Z,5.00
2023-05-05T00:44:42.220Z,3.78
2023-05-05T00:47:09.868Z,3.17
2023-05-05T00:49:37.359Z,5.30
2023-05-05T00:52:05.575Z,5.07
2023-05-05T00:54:34.688Z,5.45
2023-05-05T00:57:05.061Z,6.00
2023-05-05T00:59:34.644Z,4.05
2023-05-05T01:02:02.049Z,4.32
2023-05-05T01:04:29.284Z,7.15
2023-05-05T01:07:14.860Z,4.07
2023-05-05T01:09:44.695Z,4.03
2023-05-05T01:12:26.876Z,3.53
2023-05-05T01:15:04.795Z,6.50
2023-05-05T01:17:50.094Z,3.20
2023-05-05T01:20:19.633Z,4.53
2023-05-05T01:22:50.134Z,4.93
2023-05-05T01:26:08.863Z,5.50
2023-05-05T01:28:39.513Z,8.60
2023-05-05T01:31:52.141Z,2.85
2023-05-05T01:34:34.056Z,3.72
2023-05-05T01:37:15.650Z,5.63
2023-05-05T01:39:45.106Z,5.13
2023-05-05T01:42:15.246Z,5.15
2023-05-05T01:44:44.679Z,5.03
2023-05-05T01:47:17.968Z,6.07
2023-05-05T01:49:47.899Z,6.35
2023-05-05T01:52:16.359Z,8.00
2023-05-05T01:54:45.898Z,5.95
2023-05-05T01:57:14.745Z,5.47
2023-05-05T01:59:41.836Z,7.25
2023-05-05T02:02:11.237Z,3.58
2023-05-05T02:04:42.670Z,7.30
2023-05-05T02:07:12.753Z,4.57
2023-05-05T02:09:40.880Z,3.38
2023-05-05T02:12:08.702Z,4.78
2023-05-05T02:14:37.208Z,3.95
2023-05-05T02:17:04.945Z,3.40
2023-05-05T02:19:40.264Z,5.00
2023-05-05T02:22:07.514Z,6.28
2023-05-05T02:24:34.983Z,3.63
2023-05-05T02:27:06.346Z,4.68
2023-05-05T02:29:36.569Z,6.07
2023-05-05T02:32:17.097Z,5.68
2023-05-05T02:34:46.529Z,5.68
2023-05-05T02:37:21.426Z,3.70
2023-05-05T02:39:59.190Z,4.85
2023-05-05T02:42:32.339Z,4.63
2023-05-05T02:45:14.284Z,4.15
2023-05-05T02:47:45.187Z,3.80
2023-05-05T02:50:12.614Z,4.82
2023-05-05T02:52:46.536Z,5.35
2023-05-05T02:55:15.024Z,6.53
2023-05-05T02:57:53.735Z,4.82
2023-05-05T03:00:43.944Z,5.05
2023-05-05T03:03:32.702Z,2.70
2023-05-05T03:06:16.640Z,4.55
2023-05-05T03:09:08.020Z,4.38
2023-05-05T03:12:02.482Z,2.83
2023-05-05T03:14:41.632Z,4.95
2023-05-05T03:17:12.576Z,3.67
2023-05-05T03:19:43.585Z,4.80
2023-05-05T03:22:11.536Z,3.50
2023-05-05T03:24:43.198Z,4.28
2023-05-05T03:27:11.439Z,2.65
2023-05-05T03:29:40.074Z,5.32
2023-05-05T03:32:11.772Z,2.80
2023-05-05T03:34:40.641Z,4.10
2023-05-05T03:37:07.816Z,3.55
2023-05-05T03:39:35.001Z,4.57
2023-05-05T03:42:02.524Z,3.55
2023-05-05T03:44:32.418Z,4.03
2023-05-05T03:46:59.558Z,4.32
2023-05-05T03:49:27.988Z,5.50
2023-05-05T03:51:55.156Z,4.00
2023-05-05T03:54:22.620Z,3.85
2023-05-05T03:56:49.859Z,3.38
2023-05-05T03:59:17.461Z,6.13
2023-05-05T04:01:46.707Z,5.45
2023-05-05T04:04:14.068Z,3.55
2023-05-05T04:06:41.358Z,4.95
2023-05-05T04:09:09.331Z,4.45
2023-05-05T04:11:37.915Z,3.60
2023-05-05T04:14:05.160Z,3.00
2023-05-05T04:16:32.581Z,5.10
2023-05-05T04:18:59.797Z,4.85
2023-05-05T04:21:27.809Z,3.97
2023-05-05T04:23:55.853Z,4.25
2023-05-05T04:26:23.206Z,2.92
2023-05-05T04:28:50.567Z,3.80
2023-05-05T04:31:19.025Z,4.35
2023-05-05T04:33:47.251Z,3.25
2023-05-05T04:36:14.788Z,4.43
2023-05-05T04:38:42.101Z,3.92
2023-05-05T04:41:09.244Z,3.70
2023-05-05T04:43:38.731Z,6.00
2023-05-05T04:46:05.976Z,3.75
2023-05-05T04:48:37.977Z,4.22
2023-05-05T04:51:06.556Z,4.05
2023-05-05T04:53:34.545Z,3.60
2023-05-05T04:56:02.812Z,4.95
2023-05-05T04:58:30.131Z,3.15
2023-05-05T05:00:57.649Z,2.50
2023-05-05T05:03:24.841Z,3.13
2023-05-05T05:05:52.412Z,4.07
2023-05-05T05:08:20.197Z,2.05
2023-05-05T05:10:47.459Z,4.10
2023-05-05T05:13:14.663Z,3.28
2023-05-05T05:15:42.112Z,4.88
2023-05-05T05:18:09.327Z,3.45
2023-05-05T05:20:36.748Z,6.68
2023-05-05T05:23:04.684Z,3.72
2023-05-05T05:25:34.873Z,3.45
2023-05-05T05:28:10.191Z,4.85
2023-05-05T05:30:43.976Z,3.97
2023-05-05T05:33:12.301Z,2.65
2023-05-05T05:35:40.702Z,7.15
2023-05-05T05:38:08.761Z,5.32
2023-05-05T05:40:36.482Z,4.88
2023-05-05T05:43:04.403Z,4.68
2023-05-05T05:45:33.270Z,3.60
2023-05-05T05:48:02.566Z,3.17
2023-05-05T05:50:30.388Z,4.07
2023-05-05T05:52:59.220Z,4.15
2023-05-05T05:55:27.175Z,5.10
2023-05-05T05:57:54.774Z,5.45
2023-05-05T06:00:22.170Z,5.57
2023-05-05T06:02:56.436Z,4.15
2023-05-05T06:05:27.570Z,4.30
2023-05-05T06:07:55.160Z,6.05
2023-05-05T06:10:27.546Z,4.97
2023-05-05T06:13:02.065Z,4.72
2023-05-05T06:15:30.770Z,5.00
2023-05-05T06:17:58.364Z,5.95
2023-05-05T06:20:26.650Z,4.78
2023-05-05T06:22:54.789Z,5.20
2023-05-05T06:25:22.559Z,4.70
2023-05-05T06:27:50.677Z,4.30
2023-05-05T06:30:17.935Z,3.88
2023-05-05T06:32:45.196Z,3.97
2023-05-05T06:35:14.975Z,6.35
2023-05-05T06:37:42.260Z,4.47
2023-05-05T06:40:10.596Z,3.83
2023-05-05T06:42:38.057Z,5.22
2023-05-05T06:45:09.120Z,3.75
2023-05-05T06:47:36.638Z,6.78
2023-05-05T06:50:03.982Z,5.97
2023-05-05T06:52:31.126Z,3.80
2023-05-05T06:54:58.169Z,5.68
2023-05-05T06:57:25.924Z,4.15
2023-05-05T06:59:54.066Z,5.47
2023-05-05T07:02:21.307Z,4.70
2023-05-05T07:04:48.558Z,5.00
2023-05-05T07:07:15.790Z,4.47
2023-05-05T07:09:43.037Z,4.85
2023-05-05T07:12:10.189Z,4.07
2023-05-05T07:14:37.347Z,4.13
2023-05-05T07:17:04.429Z,3.85
2023-05-05T07:19:31.578Z,3.85
2023-05-05T07:21:58.718Z,3.72
2023-05-05T07:24:25.940Z,4.20
2023-05-05T07:26:53.117Z,3.83
2023-05-05T07:29:20.265Z,5.18
2023-05-05T07:31:47.544Z,4.10
2023-05-05T07:34:14.665Z,3.33
2023-05-05T07:36:42.144Z,3.95
2023-05-05T07:39:09.354Z,5.45
2023-05-05T07:41:36.510Z,7.38
2023-05-05T07:44:03.672Z,5.57
2023-05-05T07:46:30.809Z,4.32
2023-05-05T07:48:58.038Z,4.38
2023-05-05T07:51:25.254Z,3.72
2023-05-05T07:53:52.488Z,3.92
2023-05-05T07:56:21.661Z,5.60
2023-05-05T07:58:49.200Z,4.63
2023-05-05T08:01:16.358Z,4.63
2023-05-05T08:03:43.643Z,4.80
2023-05-05T08:06:10.932Z,5.53
2023-05-05T08:08:38.655Z,8.57
2023-05-05T08:11:06.747Z,4.70
2023-05-05T08:13:34.673Z,5.85
2023-05-05T08:16:01.849Z,5.63
2023-05-05T08:18:29.162Z,5.20
2023-05-05T08:20:56.608Z,4.32
2023-05-05T08:23:23.714Z,7.13
2023-05-05T08:25:50.798Z,6.57
2023-05-05T08:28:17.980Z,8.10
2023-05-05T08:30:45.062Z,3.85
2023-05-05T08:33:12.298Z,4.07
2023-05-05T08:35:39.505Z,5.05
2023-05-05T08:38:06.824Z,4.65
2023-05-05T08:40:34.991Z,6.28
2023-05-05T08:43:02.238Z,5.38
2023-05-05T08:45:29.790Z,4.97
2023-05-05T08:47:58.168Z,5.32
2023-05-05T08:50:27.876Z,6.10
2023-05-05T08:53:17.355Z,6.80
2023-05-05T08:55:59.277Z,5.55
2023-05-05T08:58:28.966Z,4.97
2023-05-05T09:00:57.430Z,7.63
2023-05-05T09:03:27.133Z,6.10
2023-05-05T09:05:54.424Z,6.88
2023-05-05T09:08:22.353Z,6.45
2023-05-05T09:10:53.916Z,7.07
2023-05-05T09:13:27.261Z,7.60
2023-05-05T09:15:54.380Z,7.75
2023-05-05T09:18:21.587Z,7.95
2023-05-05T09:20:48.830Z,7.13
2023-05-05T09:23:17.863Z,4.97
2023-05-05T09:26:02.499Z,7.30
2023-05-05T09:28:30.054Z,5.95
2023-05-05T09:31:13.340Z,6.63
2023-05-05T09:33:40.550Z,7.10
2023-05-05T09:36:08.075Z,11.30
2023-05-05T09:38:36.887Z,9.70
2023-05-05T09:41:05.552Z,8.05
2023-05-05T09:43:51.843Z,7.05
2023-05-05T09:46:19.332Z,8.02
2023-05-05T09:48:46.589Z,5.90
2023-05-05T09:51:16.025Z,6.70
2023-05-05T09:53:44.199Z,8.65
2023-05-05T09:56:12.406Z,6.68
2023-05-05T09:58:39.696Z,7.95
2023-05-05T10:01:21.605Z,7.30
2023-05-05T10:03:52.424Z,7.80
2023-05-05T10:06:19.637Z,9.82
2023-05-05T10:09:01.880Z,7.78
2023-05-05T10:11:29.250Z,9.15
2023-05-05T10:13:57.710Z,7.38
2023-05-05T10:16:25.942Z,6.03
2023-05-05T10:18:54.905Z,8.52
2023-05-05T10:21:22.859Z,8.63
2023-05-05T10:23:58.082Z,8.80
2023-05-05T10:26:27.759Z,8.85
2023-05-05T10:29:03.192Z,9.43
2023-05-05T10:31:46.817Z,7.93
2023-05-05T10:34:27.338Z,7.75
2023-05-05T10:36:56.985Z,7.30
2023-05-05T10:39:25.140Z,6.80
2023-05-05T10:41:53.046Z,9.32
2023-05-05T10:44:21.141Z,9.57
2023-05-05T10:46:48.562Z,8.50
2023-05-05T10:49:30.429Z,7.45
2023-05-05T10:52:03.359Z,8.85
2023-05-05T10:54:45.888Z,9.10
2023-05-05T10:57:16.962Z,8.55
2023-05-05T10:59:44.429Z,10.85
2023-05-05T11:02:21.469Z,9.40
2023-05-05T11:05:23.350Z,7.57
2023-05-05T11:07:51.981Z,9.43
2023-05-05T11:10:20.896Z,10.68
2023-05-05T11:13:02.593Z,8.38
2023-05-05T11:15:30.099Z,8.87
2023-05-05T11:18:07.449Z,9.80
2023-05-05T11:20:40.920Z,9.02
2023-05-05T11:23:08.253Z,11.15
2023-05-05T11:25:35.885Z,11.18
2023-05-05T11:28:21.223Z,10.48
2023-05-05T11:30:58.859Z,10.40
2023-05-05T11:33:30.712Z,8.85
2023-05-05T11:36:06.842Z,8.63
2023-05-05T11:38:52.466Z,9.13
2023-05-05T11:41:34.278Z,10.30
2023-05-05T11:44:17.039Z,12.15
2023-05-05T11:46:53.224Z,15.02
2023-05-05T11:49:41.271Z,11.55
2023-05-05T11:52:10.934Z,10.05
2023-05-05T11:54:41.440Z,13.02
2023-05-05T11:57:09.214Z,10.63
2023-05-05T11:59:49.623Z,9.52
2023-05-05T12:02:20.662Z,11.90
2023-05-05T12:04:48.432Z,9.40
2023-05-05T12:07:19.932Z,11.05
2023-05-05T12:09:48.290Z,11.10
2023-05-05T12:12:16.130Z,10.00
2023-05-05T12:14:47.207Z,11.52
2023-05-05T12:17:14.640Z,12.32
2023-05-05T12:19:54.672Z,11.45
2023-05-05T12:22:27.173Z,9.52
2023-05-05T12:25:01.147Z,12.85
2023-05-05T12:27:29.030Z,10.15
2023-05-05T12:29:57.216Z,9.85
2023-05-05T12:32:31.132Z,10.38
2023-05-05T12:34:58.361Z,12.02
2023-05-05T12:37:26.962Z,11.80
2023-05-05T12:39:55.157Z,9.70
2023-05-05T12:42:23.309Z,12.15
2023-05-05T12:44:50.488Z,13.25
2023-05-05T12:47:38.487Z,12.13
2023-05-05T12:50:06.234Z,12.20
2023-05-05T12:52:44.929Z,13.60
2023-05-05T12:55:12.757Z,11.40
2023-05-05T12:57:58.390Z,15.13
2023-05-05T13:00:26.141Z,12.15
2023-05-05T13:02:53.417Z,11.00
2023-05-05T13:05:33.705Z,15.25
2023-05-05T13:08:00.910Z,12.15
2023-05-05T13:10:28.527Z,11.35
2023-05-05T13:12:56.897Z,12.02
2023-05-05T13:15:24.962Z,11.15
2023-05-05T13:18:00.368Z,9.55
2023-05-05T13:20:27.879Z,12.63
2023-05-05T13:22:55.218Z,11.93
2023-05-05T13:25:22.620Z,11.27
2023-05-05T13:27:49.902Z,16.00
2023-05-05T13:30:17.076Z,12.10
2023-05-05T13:32:44.303Z,13.38
2023-05-05T13:35:13.837Z,12.27
2023-05-05T13:37:42.799Z,11.82
2023-05-05T13:40:10.905Z,11.15
2023-05-05T13:42:38.038Z,15.10
2023-05-05T13:45:05.593Z,17.17
2023-05-05T13:47:33.097Z,14.88
2023-05-05T13:50:00.781Z,15.63
2023-05-05T13:52:29.008Z,12.43
2023-05-05T13:54:57.690Z,15.35
2023-05-05T13:57:25.149Z,12.00
2023-05-05T13:59:52.245Z,10.55
2023-05-05T14:02:19.363Z,12.20
2023-05-05T14:04:46.793Z,13.05
2023-05-05T14:07:15.649Z,12.52
2023-05-05T14:09:42.800Z,11.77
2023-05-05T14:12:10.314Z,10.55
2023-05-05T14:14:37.819Z,12.70
2023-05-05T14:17:05.232Z,9.82
2023-05-05T14:19:32.556Z,10.07
2023-05-05T14:21:59.744Z,9.13
2023-05-05T14:24:27.340Z,7.70
2023-05-05T14:26:54.636Z,10.25
2023-05-05T14:29:21.778Z,14.20
2023-05-05T14:31:48.920Z,11.45
2023-05-05T14:34:16.117Z,11.27
2023-05-05T14:36:43.171Z,10.70
2023-05-05T14:39:10.360Z,11.50
2023-05-05T14:41:37.454Z,13.57
2023-05-05T14:44:04.714Z,8.65
2023-05-05T14:46:33.790Z,11.18
2023-05-05T14:49:01.070Z,8.18
2023-05-05T14:51:28.214Z,11.13
2023-05-05T14:53:55.880Z,11.43
2023-05-05T14:56:24.498Z,7.82
2023-05-05T14:58:51.667Z,9.13
2023-05-05T15:01:20.699Z,8.25
2023-05-05T15:03:47.978Z,9.02
2023-05-05T15:06:15.161Z,9.27
2023-05-05T15:08:42.597Z,8.90
2023-05-05T15:11:09.746Z,7.68
2023-05-05T15:13:40.134Z,10.48
2023-05-05T15:16:08.254Z,8.32
2023-05-05T15:18:35.768Z,10.45
2023-05-05T15:21:02.992Z,10.85
2023-05-05T15:23:30.053Z,11.32
2023-05-05T15:25:57.218Z,9.45
2023-05-05T15:28:24.489Z,9.38
2023-05-05T15:30:51.620Z,8.73
2023-05-05T15:33:18.799Z,7.07
2023-05-05T15:35:45.980Z,9.35
2023-05-05T15:38:13.203Z,7.72
2023-05-05T15:40:40.319Z,8.07
2023-05-05T15:43:07.473Z,9.43
2023-05-05T15:45:34.695Z,7.72
2023-05-05T15:48:02.007Z,9.15
2023-05-05T15:50:29.100Z,10.32
2023-05-05T15:52:57.404Z,11.48
2023-05-05T15:55:24.599Z,11.98
2023-05-05T15:57:51.846Z,9.98
2023-05-05T16:00:19.177Z,11.65
2023-05-05T16:02:46.367Z,11.18
2023-05-05T16:05:13.836Z,10.50
2023-05-05T16:07:41.056Z,11.27
2023-05-05T16:10:09.014Z,9.25
2023-05-05T16:12:36.131Z,9.98
2023-05-05T16:15:03.614Z,14.48
2023-05-05T16:17:31.419Z,9.80
2023-05-05T16:19:58.838Z,10.38
2023-05-05T16:22:25.962Z,7.88
2023-05-05T16:24:53.020Z,10.07
2023-05-05T16:27:20.245Z,11.00
2023-05-05T16:29:47.482Z,9.75
2023-05-05T16:32:14.530Z,11.80
2023-05-05T16:34:41.632Z,9.80
2023-05-05T16:37:08.792Z,9.55
2023-05-05T16:39:40.274Z,12.30
2023-05-05T16:42:07.686Z,10.43
2023-05-05T16:44:34.984Z,9.32
2023-05-05T16:47:02.206Z,10.80
2023-05-05T16:49:29.413Z,11.70
2023-05-05T16:51:57.345Z,10.48
2023-05-05T16:54:24.442Z,10.50
2023-05-05T16:56:52.416Z,10.35
2023-05-05T16:59:19.615Z,12.40
2023-05-05T17:01:47.019Z,15.48
2023-05-05T17:04:14.366Z,19.10
2023-05-05T17:06:41.692Z,15.68
2023-05-05T17:09:08.910Z,16.88
2023-05-05T17:11:36.157Z,14.85
2023-05-05T17:14:03.359Z,17.65
2023-05-05T17:16:31.234Z,17.38
2023-05-05T17:18:58.521Z,17.15
2023-05-05T17:21:26.933Z,14.00
2023-05-05T17:23:53.997Z,12.85
2023-05-05T17:26:21.215Z,13.55
2023-05-05T17:28:48.474Z,10.90
2023-05-05T17:31:15.679Z,10.50
2023-05-05T17:33:42.865Z,13.13
2023-05-05T17:36:10.243Z,15.27
2023-05-05T17:38:37.501Z,10.48
2023-05-05T17:41:04.674Z,11.90
2023-05-05T17:43:31.832Z,14.85
2023-05-05T17:45:58.933Z,12.68
2023-05-05T17:48:26.854Z,12.52
2023-05-05T17:50:54.158Z,12.25
2023-05-05T17:53:21.609Z,13.15
2023-05-05T17:55:49.170Z,9.73
2023-05-05T17:58:16.374Z,13.35
2023-05-05T18:00:43.458Z,11.20
2023-05-05T18:03:10.979Z,11.77
2023-05-05T18:05:38.105Z,11.45
2023-05-05T18:08:05.682Z,9.95
2023-05-05T18:10:32.849Z,14.38
2023-05-05T18:13:00.094Z,11.27
2023-05-05T18:15:27.464Z,12.20
2023-05-05T18:17:54.596Z,11.63
2023-05-05T18:20:21.842Z,14.93
2023-05-05T18:22:49.031Z,10.52
2023-05-05T18:25:16.251Z,10.35
2023-05-05T18:27:44.653Z,11.52
2023-05-05T18:30:12.608Z,10.75
2023-05-05T18:32:40.043Z,10.32
2023-05-05T18:35:09.436Z,11.00
2023-05-05T18:37:36.858Z,11.95
2023-05-05T18:40:04.236Z,14.63
2023-05-05T18:42:31.643Z,14.10
2023-05-05T18:45:02.047Z,11.82
2023-05-05T18:47:34.172Z,11.95
2023-05-05T18:50:01.682Z,11.75
2023-05-05T18:52:28.974Z,12.50
2023-05-05T18:54:56.162Z,12.75
2023-05-05T18:57:23.468Z,12.50
2023-05-05T18:59:50.570Z,10.00
2023-05-05T19:02:18.163Z,11.80
2023-05-05T19:04:45.626Z,13.13
2023-05-05T19:07:18.376Z,11.35
2023-05-05T19:09:51.246Z,16.15
2023-05-05T19:12:18.450Z,10.63
2023-05-05T19:14:46.453Z,12.05
2023-05-05T19:17:13.677Z,10.43
2023-05-05T19:19:40.802Z,11.55
2023-05-05T19:22:07.932Z,8.23
2023-05-05T19:24:35.788Z,11.32
2023-05-05T19:27:03.115Z,13.15
2023-05-05T19:29:32.147Z,12.60
2023-05-05T19:31:59.687Z,16.45
2023-05-05T19:34:27.055Z,18.08
2023-05-05T19:36:54.140Z,16.75
2023-05-05T19:39:21.286Z,13.27
2023-05-05T19:41:48.425Z,12.98
2023-05-05T19:44:15.590Z,14.25
2023-05-05T19:46:43.025Z,14.13
2023-05-05T19:49:10.364Z,13.57
2023-05-05T19:51:37.581Z,9.43
2023-05-05T19:54:04.970Z,11.63
2023-05-05T19:56:32.124Z,13.77
2023-05-05T19:59:00.867Z,13.57
2023-05-05T20:01:29.398Z,14.00
2023-05-05T20:03:57.478Z,10.77
2023-05-05T20:06:24.928Z,11.25
2023-05-05T20:08:52.786Z,11.48
2023-05-05T20:11:21.274Z,11.75
2023-05-05T20:13:49.431Z,8.38
2023-05-05T20:16:16.742Z,7.07
2023-05-05T20:18:44.514Z,10.25
2023-05-05T20:21:11.847Z,7.78
2023-05-05T20:23:39.105Z,10.57
2023-05-05T20:26:06.637Z,8.95
2023-05-05T20:28:33.968Z,8.70
2023-05-05T20:31:01.219Z,8.38
2023-05-05T20:33:29.365Z,8.93
2023-05-05T20:35:56.576Z,7.53
2023-05-05T20:38:23.771Z,7.68
2023-05-05T20:40:52.252Z,7.57
2023-05-05T20:43:19.797Z,6.72
2023-05-05T20:45:47.235Z,6.00
2023-05-05T20:48:14.534Z,6.60
2023-05-05T20:50:42.309Z,7.57
2023-05-05T20:53:11.153Z,9.02
2023-05-05T20:55:38.295Z,8.40
2023-05-05T20:58:07.544Z,8.43
2023-05-05T21:00:34.956Z,11.35
2023-05-05T21:03:05.265Z,9.77
2023-05-05T21:05:32.521Z,10.48
2023-05-05T21:08:01.015Z,9.82
2023-05-05T21:10:33.242Z,9.20
2023-05-05T21:13:02.593Z,8.23
2023-05-05T21:15:30.441Z,9.90
2023-05-05T21:17:57.942Z,10.73
2023-05-05T21:20:25.056Z,10.73
2023-05-05T21:22:52.402Z,12.32
2023-05-05T21:25:21.425Z,11.45
2023-05-05T21:27:49.290Z,16.65
2023-05-05T21:30:17.150Z,11.60
2023-05-05T21:32:44.850Z,12.13
2023-05-05T21:35:12.125Z,14.23
2023-05-05T21:37:40.107Z,12.40
2023-05-05T21:40:10.992Z,11.13
2023-05-05T21:42:38.341Z,14.23
2023-05-05T21:45:05.920Z,11.48
2023-05-05T21:47:33.109Z,14.43
2023-05-05T21:50:00.282Z,12.10
2023-05-05T21:52:27.356Z,11.13
2023-05-05T21:54:54.509Z,11.35
2023-05-05T21:57:21.786Z,11.95
2023-05-05T21:59:49.070Z,10.50
2023-05-05T22:02:16.214Z,10.23
2023-05-05T22:04:46.080Z,9.85
2023-05-05T22:07:13.239Z,9.50
2023-05-05T22:09:40.423Z,9.75
2023-05-05T22:12:07.615Z,10.18
2023-05-05T22:14:34.766Z,11.10
2023-05-05T22:17:01.967Z,12.68
2023-05-05T22:19:29.183Z,12.38
2023-05-05T22:21:58.701Z,11.35
2023-05-05T22:24:25.922Z,12.25
2023-05-05T22:26:53.728Z,12.63
2023-05-05T22:29:20.880Z,11.13
2023-05-05T22:31:48.083Z,10.55
2023-05-05T22:34:15.282Z,11.65
2023-05-05T22:36:42.473Z,10.15
2023-05-05T22:39:09.682Z,10.52
2023-05-05T22:41:36.962Z,10.80
2023-05-05T22:44:04.157Z,10.20
2023-05-05T22:46:31.388Z,10.85
2023-05-05T22:48:58.732Z,9.52
2023-05-05T22:51:25.872Z,10.82
2023-05-05T22:53:52.937Z,10.48
2023-05-05T22:56:20.103Z,8.85
2023-05-05T22:58:47.227Z,8.43
2023-05-05T23:01:14.635Z,7.80
2023-05-05T23:03:41.966Z,9.23
2023-05-05T23:06:09.763Z,10.40
2023-05-05T23:08:36.923Z,9.43
2023-05-05T23:11:04.104Z,9.10
2023-05-05T23:13:31.271Z,10.10
2023-05-05T23:15:58.391Z,8.75
2023-05-05T23:18:25.758Z,8.68
2023-05-05T23:20:52.892Z,7.45
2023-05-05T23:23:20.042Z,10.18
2023-05-05T23:25:47.777Z,9.90
2023-05-05T23:28:15.199Z,8.82
2023-05-05T23:30:42.330Z,10.93
2023-05-05T23:33:09.446Z,10.05
2023-05-05T23:35:39.624Z,7.97
2023-05-05T23:38:06.849Z,7.63
2023-05-05T23:40:34.556Z,7.43
2023-05-05T23:43:01.831Z,8.60
2023-05-05T23:45:29.168Z,7.10
2023-05-05T23:47:56.414Z,5.75
2023-05-05T23:50:23.495Z,6.05
2023-05-05T23:52:50.663Z,5.97
2023-05-05T23:55:17.829Z,4.35
2023-05-05T23:57:45.091Z,7.47
